sensor_id;sensor_type;location;lat;lon;timestamp;pressure;altitude;pressure_sealevel;temperature;humidity
48390;BME280;34643;47.964;7.982;2023-05-07T00:01:47;96559.72;;;19.80;61.18
48390;BME280;34643;47.964;7.982;2023-05-07T00:06:47;96552.84;;;19.79;61.27
48390;BME280;34643;47.964;7.982;2023-05-07T00:11:47;96546.63;;;19.80;61.29
48390;BME280;34643;47.964;7.982;2023-05-07T00:16:47;96542.38;;;19.79;61.22
48390;BME280;34643;47.964;7.982;2023-05-07T00:21:48;96540.69;;;19.78;61.28
48390;BME280;34643;47.964;7.982;2023-05-07T00:26:48;96540.69;;;19.78;61.30
48390;BME280;34643;47.964;7.982;2023-05-07T00:31:49;96532.84;;;19.78;61.24
48390;BME280;34643;47.964;7.982;2023-05-07T00:36:49;96527.75;;;19.77;61.23
48390;BME280;34643;47.964;7.982;2023-05-07T00:41:49;96526.91;;;19.76;61.21
48390;BME280;34643;47.964;7.982;2023-05-07T00:46:51;96532.97;;;19.77;61.25
48390;BME280;34643;47.964;7.982;2023-05-07T00:51:51;96530.34;;;19.77;61.18
48390;BME280;34643;47.964;7.982;2023-05-07T00:56:52;96538.22;;;19.77;61.22
48390;BME280;34643;47.964;7.982;2023-05-07T01:01:52;96537.41;;;19.76;61.17
48390;BME280;34643;47.964;7.982;2023-05-07T01:06:53;96520.88;;;19.75;61.15
48390;BME280;34643;47.964;7.982;2023-05-07T01:11:56;96513.81;;;19.76;61.18
48390;BME280;34643;47.964;7.982;2023-05-07T01:16:57;96516.56;;;19.74;61.11
48390;BME280;34643;47.964;7.982;2023-05-07T01:22:01;96512.16;;;19.75;61.08
48390;BME280;34643;47.964;7.982;2023-05-07T01:27:04;96510.53;;;19.74;61.14
48390;BME280;34643;47.964;7.982;2023-05-07T01:32:06;96520.16;;;19.73;61.18
48390;BME280;34643;47.964;7.982;2023-05-07T01:37:07;96518.38;;;19.74;61.19
48390;BME280;34643;47.964;7.982;2023-05-07T01:42:08;96514.06;;;19.73;61.16
48390;BME280;34643;47.964;7.982;2023-05-07T01:47:08;96509.81;;;19.72;61.15
48390;BME280;34643;47.964;7.982;2023-05-07T01:52:09;96511.44;;;19.73;61.12
48390;BME280;34643;47.964;7.982;2023-05-07T01:57:10;96504.56;;;19.72;61.12
48390;BME280;34643;47.964;7.982;2023-05-07T02:02:11;96505.38;;;19.72;61.13
48390;BME280;34643;47.964;7.982;2023-05-07T02:07:14;96520.28;;;19.72;61.07
48390;BME280;34643;47.964;7.982;2023-05-07T02:12:14;96516.00;;;19.71;61.14
48390;BME280;34643;47.964;7.982;2023-05-07T02:17:15;96516.81;;;19.71;61.15
48390;BME280;34643;47.964;7.982;2023-05-07T02:22:15;96529.91;;;19.71;61.04
48390;BME280;34643;47.964;7.982;2023-05-07T02:27:15;96528.25;;;19.70;61.11
48390;BME280;34643;47.964;7.982;2023-05-07T02:32:17;96528.25;;;19.70;61.04
48390;BME280;34643;47.964;7.982;2023-05-07T02:37:17;96522.31;;;19.68;60.96
48390;BME280;34643;47.964;7.982;2023-05-07T02:42:17;96517.91;;;19.69;61.00
48390;BME280;34643;47.964;7.982;2023-05-07T02:47:18;96518.75;;;19.69;60.98
48390;BME280;34643;47.964;7.982;2023-05-07T02:52:19;96517.06;;;19.68;60.96
48390;BME280;34643;47.964;7.982;2023-05-07T02:57:19;96500.53;;;19.68;60.82
48390;BME280;34643;47.964;7.982;2023-05-07T03:02:20;96503.16;;;19.68;61.01
48390;BME280;34643;47.964;7.982;2023-05-07T03:07:20;96512.81;;;19.67;60.95
48390;BME280;34643;47.964;7.982;2023-05-07T03:12:20;96509.38;;;19.67;60.98
48390;BME280;34643;47.964;7.982;2023-05-07T03:17:21;96506.75;;;19.67;61.10
48390;BME280;34643;47.964;7.982;2023-05-07T03:22:21;96506.88;;;19.65;61.02
48390;BME280;34643;47.964;7.982;2023-05-07T03:27:22;96510.31;;;19.66;60.98
48390;BME280;34643;47.964;7.982;2023-05-07T03:32:23;96509.50;;;19.65;61.03
48390;BME280;34643;47.964;7.982;2023-05-07T03:37:24;96508.66;;;19.65;60.99
48390;BME280;34643;47.964;7.982;2023-05-07T03:42:24;96520.94;;;19.64;60.83
48390;BME280;34643;47.964;7.982;2023-05-07T03:47:26;96520.94;;;19.64;60.96
48390;BME280;34643;47.964;7.982;2023-05-07T03:52:26;96521.75;;;19.65;60.83
48390;BME280;34643;47.964;7.982;2023-05-07T03:57:30;96527.97;;;19.64;60.83
48390;BME280;34643;47.964;7.982;2023-05-07T04:02:32;96526.28;;;19.63;60.87
48390;BME280;34643;47.964;7.982;2023-05-07T04:07:33;96542.00;;;19.63;60.87
48390;BME280;34643;47.964;7.982;2023-05-07T04:12:33;96532.50;;;19.62;60.86
48390;BME280;34643;47.964;7.982;2023-05-07T04:17:34;96535.94;;;19.62;60.87
48390;BME280;34643;47.964;7.982;2023-05-07T04:22:35;96535.13;;;19.62;60.92
48390;BME280;34643;47.964;7.982;2023-05-07T04:27:38;96540.38;;;19.62;60.90
48390;BME280;34643;47.964;7.982;2023-05-07T04:32:38;96542.13;;;19.61;60.83
48390;BME280;34643;47.964;7.982;2023-05-07T04:37:40;96543.94;;;19.61;60.96
48390;BME280;34643;47.964;7.982;2023-05-07T04:42:40;96538.69;;;19.61;60.95
48390;BME280;34643;47.964;7.982;2023-05-07T04:47:42;96543.25;;;19.59;60.77
48390;BME280;34643;47.964;7.982;2023-05-07T04:52:42;96542.28;;;19.60;60.93
48390;BME280;34643;47.964;7.982;2023-05-07T04:57:43;96545.72;;;19.60;60.77
48390;BME280;34643;47.964;7.982;2023-05-07T05:02:46;96562.38;;;19.59;60.78
48390;BME280;34643;47.964;7.982;2023-05-07T05:07:51;96570.25;;;19.59;60.93
48390;BME280;34643;47.964;7.982;2023-05-07T05:12:52;96584.31;;;19.58;60.90
48390;BME280;34643;47.964;7.982;2023-05-07T05:17:53;96592.97;;;19.59;60.85
48390;BME280;34643;47.964;7.982;2023-05-07T05:22:53;96593.94;;;19.57;60.88
48390;BME280;34643;47.964;7.982;2023-05-07T05:27:54;96593.94;;;19.57;61.00
48390;BME280;34643;47.964;7.982;2023-05-07T05:32:55;96594.78;;;19.58;60.97
48390;BME280;34643;47.964;7.982;2023-05-07T05:37:55;96591.31;;;19.57;60.98
48390;BME280;34643;47.964;7.982;2023-05-07T05:42:56;96601.78;;;19.57;60.88
48390;BME280;34643;47.964;7.982;2023-05-07T05:47:57;96603.47;;;19.59;60.97
48390;BME280;34643;47.964;7.982;2023-05-07T05:52:58;96606.19;;;19.57;61.03
48390;BME280;34643;47.964;7.982;2023-05-07T05:58:01;96619.28;;;19.57;61.02
48390;BME280;34643;47.964;7.982;2023-05-07T06:03:02;96619.28;;;19.57;60.95
48390;BME280;34643;47.964;7.982;2023-05-07T06:08:03;96628.94;;;19.56;60.87
48390;BME280;34643;47.964;7.982;2023-05-07T06:13:07;96627.97;;;19.57;60.89
48390;BME280;34643;47.964;7.982;2023-05-07T06:18:08;96627.97;;;19.57;60.95
48390;BME280;34643;47.964;7.982;2023-05-07T06:23:08;96632.38;;;19.57;60.89
48390;BME280;34643;47.964;7.982;2023-05-07T06:28:09;96624.41;;;19.59;60.93
48390;BME280;34643;47.964;7.982;2023-05-07T06:33:14;96633.06;;;19.59;60.86
48390;BME280;34643;47.964;7.982;2023-05-07T06:38:15;96635.69;;;19.59;60.82
48390;BME280;34643;47.964;7.982;2023-05-07T06:43:17;96629.63;;;19.59;61.07
48390;BME280;34643;47.964;7.982;2023-05-07T06:48:26;96633.94;;;19.60;60.81
48390;BME280;34643;47.964;7.982;2023-05-07T06:53:34;96631.31;;;19.60;60.74
48390;BME280;34643;47.964;7.982;2023-05-07T06:58:37;96624.41;;;19.59;60.81
48390;BME280;34643;47.964;7.982;2023-05-07T07:03:37;96623.44;;;19.60;60.86
48390;BME280;34643;47.964;7.982;2023-05-07T07:08:38;96631.16;;;19.61;61.04
48390;BME280;34643;47.964;7.982;2023-05-07T07:13:39;96627.72;;;19.61;60.85
48390;BME280;34643;47.964;7.982;2023-05-07T07:18:40;96628.53;;;19.61;61.00
48390;BME280;34643;47.964;7.982;2023-05-07T07:23:40;96625.09;;;19.61;60.96
48390;BME280;34643;47.964;7.982;2023-05-07T07:28:44;96632.00;;;19.62;60.97
48390;BME280;34643;47.964;7.982;2023-05-07T07:33:45;96627.59;;;19.62;60.96
48390;BME280;34643;47.964;7.982;2023-05-07T07:38:45;96627.59;;;19.62;60.89
48390;BME280;34643;47.964;7.982;2023-05-07T07:43:46;96620.56;;;19.63;60.94
48390;BME280;34643;47.964;7.982;2023-05-07T07:48:47;96623.16;;;19.63;61.12
48390;BME280;34643;47.964;7.982;2023-05-07T07:53:47;96622.22;;;19.64;61.05
48390;BME280;34643;47.964;7.982;2023-05-07T07:58:48;96629.09;;;19.65;61.16
48390;BME280;34643;47.964;7.982;2023-05-07T08:03:48;96623.84;;;19.65;61.04
48390;BME280;34643;47.964;7.982;2023-05-07T08:08:49;96620.28;;;19.66;61.10
48390;BME280;34643;47.964;7.982;2023-05-07T08:13:51;96618.63;;;19.65;61.17
48390;BME280;34643;47.964;7.982;2023-05-07T08:18:51;96618.50;;;19.66;61.16
48390;BME280;34643;47.964;7.982;2023-05-07T08:23:51;96617.53;;;19.67;61.17
48390;BME280;34643;47.964;7.982;2023-05-07T08:28:52;96621.81;;;19.68;60.99
48390;BME280;34643;47.964;7.982;2023-05-07T08:33:52;96634.78;;;19.70;61.17
48390;BME280;34643;47.964;7.982;2023-05-07T08:38:53;96625.28;;;19.69;61.23
48390;BME280;34643;47.964;7.982;2023-05-07T08:43:54;96623.34;;;19.71;61.18
48390;BME280;34643;47.964;7.982;2023-05-07T08:48:57;96625.97;;;19.71;61.14
48390;BME280;34643;47.964;7.982;2023-05-07T08:53:58;96625.97;;;19.71;61.22
48390;BME280;34643;47.964;7.982;2023-05-07T08:59:03;96629.28;;;19.73;61.24
48390;BME280;34643;47.964;7.982;2023-05-07T09:04:04;96618.81;;;19.73;61.18
48390;BME280;34643;47.964;7.982;2023-05-07T09:09:06;96622.28;;;19.73;61.28
48390;BME280;34643;47.964;7.982;2023-05-07T09:14:07;96617.03;;;19.73;61.23
48390;BME280;34643;47.964;7.982;2023-05-07T09:19:12;96620.50;;;19.74;61.17
48390;BME280;34643;47.964;7.982;2023-05-07T09:24:17;96623.13;;;19.74;61.31
48390;BME280;34643;47.964;7.982;2023-05-07T09:29:18;96629.19;;;19.74;61.23
48390;BME280;34643;47.964;7.982;2023-05-07T09:34:19;96626.44;;;19.76;61.37
48390;BME280;34643;47.964;7.982;2023-05-07T09:39:21;96628.06;;;19.77;61.28
48390;BME280;34643;47.964;7.982;2023-05-07T09:44:21;96628.91;;;19.78;61.36
48390;BME280;34643;47.964;7.982;2023-05-07T09:49:24;96636.78;;;19.78;61.39
48390;BME280;34643;47.964;7.982;2023-05-07T09:54:32;96640.22;;;19.78;61.39
48390;BME280;34643;47.964;7.982;2023-05-07T09:59:34;96644.63;;;19.78;61.33
48390;BME280;34643;47.964;7.982;2023-05-07T10:04:38;96653.31;;;19.78;61.34
48390;BME280;34643;47.964;7.982;2023-05-07T10:09:39;96669.97;;;19.77;61.40
48390;BME280;34643;47.964;7.982;2023-05-07T10:14:47;96678.69;;;19.78;61.46
48390;BME280;34643;47.964;7.982;2023-05-07T10:19:48;96672.75;;;19.75;61.47
48390;BME280;34643;47.964;7.982;2023-05-07T10:24:50;96691.06;;;19.75;61.46
48390;BME280;34643;47.964;7.982;2023-05-07T10:34:53;96720.00;;;19.74;61.55
48390;BME280;34643;47.964;7.982;2023-05-07T10:39:55;96710.44;;;19.73;61.63
48390;BME280;34643;47.964;7.982;2023-05-07T10:44:55;96705.22;;;19.73;61.55
48390;BME280;34643;47.964;7.982;2023-05-07T10:55:26;96720.09;;;19.72;61.48
48390;BME280;34643;47.964;7.982;2023-05-07T11:00:48;96710.59;;;19.71;61.52
48390;BME280;34643;47.964;7.982;2023-05-07T11:06:08;96705.22;;;19.73;61.44
48390;BME280;34643;47.964;7.982;2023-05-07T11:11:13;96700.97;;;19.72;61.55
48390;BME280;34643;47.964;7.982;2023-05-07T11:16:25;96700.81;;;19.73;61.47
48390;BME280;34643;47.964;7.982;2023-05-07T11:21:37;96702.50;;;19.74;61.52
48390;BME280;34643;47.964;7.982;2023-05-07T11:27:19;96702.50;;;19.74;61.37
48390;BME280;34643;47.964;7.982;2023-05-07T11:32:27;96713.78;;;19.75;61.38
48390;BME280;34643;47.964;7.982;2023-05-07T11:37:28;96710.22;;;19.76;61.36
48390;BME280;34643;47.964;7.982;2023-05-07T11:42:35;96715.47;;;19.76;61.31
48390;BME280;34643;47.964;7.982;2023-05-07T11:47:35;96709.41;;;19.75;61.30
48390;BME280;34643;47.964;7.982;2023-05-07T11:52:35;96712.84;;;19.76;61.32
48390;BME280;34643;47.964;7.982;2023-05-07T11:57:36;96712.84;;;19.76;61.31
48390;BME280;34643;47.964;7.982;2023-05-07T12:02:36;96709.25;;;19.77;61.30
48390;BME280;34643;47.964;7.982;2023-05-07T12:07:36;96704.88;;;19.78;61.30
48390;BME280;34643;47.964;7.982;2023-05-07T12:12:40;96707.50;;;19.78;61.33
48390;BME280;34643;47.964;7.982;2023-05-07T12:17:41;96707.50;;;19.78;61.44
48390;BME280;34643;47.964;7.982;2023-05-07T12:22:42;96711.75;;;19.79;61.37
48390;BME280;34643;47.964;7.982;2023-05-07T12:27:42;96704.00;;;19.77;61.28
48390;BME280;34643;47.964;7.982;2023-05-07T12:32:43;96714.38;;;19.79;61.29
48390;BME280;34643;47.964;7.982;2023-05-07T12:37:45;96707.34;;;19.79;61.26
48390;BME280;34643;47.964;7.982;2023-05-07T12:42:54;96719.47;;;19.80;61.30
48390;BME280;34643;47.964;7.982;2023-05-07T12:47:55;96709.97;;;19.79;61.29
48390;BME280;34643;47.964;7.982;2023-05-07T12:52:56;96716.03;;;19.80;61.36
48390;BME280;34643;47.964;7.982;2023-05-07T12:57:56;96718.53;;;19.81;61.40
48390;BME280;34643;47.964;7.982;2023-05-07T13:02:58;96717.84;;;19.79;61.35
48390;BME280;34643;47.964;7.982;2023-05-07T13:07:58;96720.44;;;19.79;61.40
48390;BME280;34643;47.964;7.982;2023-05-07T13:12:58;96713.41;;;19.80;61.43
48390;BME280;34643;47.964;7.982;2023-05-07T13:17:59;96716.97;;;19.79;61.51
48390;BME280;34643;47.964;7.982;2023-05-07T13:22:59;96725.81;;;19.78;61.50
48390;BME280;34643;47.964;7.982;2023-05-07T13:28:02;96740.69;;;19.77;61.57
48390;BME280;34643;47.964;7.982;2023-05-07T13:33:02;96764.53;;;19.74;61.60
48390;BME280;34643;47.964;7.982;2023-05-07T13:38:03;96762.94;;;19.71;61.91
48390;BME280;34643;47.964;7.982;2023-05-07T13:43:05;96758.19;;;19.77;61.72
48390;BME280;34643;47.964;7.982;2023-05-07T13:48:05;96747.72;;;19.77;61.70
48390;BME280;34643;47.964;7.982;2023-05-07T13:53:07;96732.81;;;19.77;61.73
48390;BME280;34643;47.964;7.982;2023-05-07T13:58:07;96715.47;;;19.76;61.67
48390;BME280;34643;47.964;7.982;2023-05-07T14:03:07;96707.19;;;19.81;61.63
48390;BME280;34643;47.964;7.982;2023-05-07T14:08:07;96714.81;;;19.84;61.63
48390;BME280;34643;47.964;7.982;2023-05-07T14:13:08;96712.50;;;19.90;61.61
48390;BME280;34643;47.964;7.982;2023-05-07T14:18:08;96710.31;;;19.96;61.76
48390;BME280;34643;47.964;7.982;2023-05-07T14:23:08;96701.22;;;20.00;61.81
48390;BME280;34643;47.964;7.982;2023-05-07T14:28:08;96699.59;;;19.99;61.95
48390;BME280;34643;47.964;7.982;2023-05-07T14:33:09;96695.97;;;20.00;62.12
48390;BME280;34643;47.964;7.982;2023-05-07T14:38:09;96696.03;;;20.09;62.47
48390;BME280;34643;47.964;7.982;2023-05-07T14:43:10;96700.84;;;20.14;62.25
48390;BME280;34643;47.964;7.982;2023-05-07T14:48:10;96697.38;;;20.04;62.27
48390;BME280;34643;47.964;7.982;2023-05-07T14:53:15;96697.66;;;20.01;62.12
48390;BME280;34643;47.964;7.982;2023-05-07T14:58:15;96701.22;;;20.00;62.10
48390;BME280;34643;47.964;7.982;2023-05-07T15:03:16;96697.78;;;19.99;62.02
48390;BME280;34643;47.964;7.982;2023-05-07T15:08:18;96696.97;;;19.99;62.15
48390;BME280;34643;47.964;7.982;2023-05-07T15:13:19;96703.97;;;19.98;61.97
48390;BME280;34643;47.964;7.982;2023-05-07T15:18:19;96716.25;;;19.98;61.81
48390;BME280;34643;47.964;7.982;2023-05-07T15:23:20;96719.69;;;19.98;61.92
48390;BME280;34643;47.964;7.982;2023-05-07T15:28:22;96722.19;;;20.00;61.86
48390;BME280;34643;47.964;7.982;2023-05-07T15:33:24;96718.75;;;19.99;61.89
48390;BME280;34643;47.964;7.982;2023-05-07T15:38:25;96717.91;;;19.99;61.77
48390;BME280;34643;47.964;7.982;2023-05-07T15:43:26;96714.31;;;20.00;61.76
48390;BME280;34643;47.964;7.982;2023-05-07T15:48:26;96712.53;;;20.00;61.84
48390;BME280;34643;47.964;7.982;2023-05-07T15:53:26;96714.06;;;20.03;61.90
48390;BME280;34643;47.964;7.982;2023-05-07T15:58:27;96711.31;;;20.04;61.93
48390;BME280;34643;47.964;7.982;2023-05-07T16:03:27;96712.13;;;20.05;62.20
48390;BME280;34643;47.964;7.982;2023-05-07T16:08:28;96710.47;;;20.04;62.09
48390;BME280;34643;47.964;7.982;2023-05-07T16:13:28;96715.56;;;20.05;62.04
48390;BME280;34643;47.964;7.982;2023-05-07T16:18:28;96716.44;;;20.06;62.31
48390;BME280;34643;47.964;7.982;2023-05-07T16:23:28;96716.13;;;20.09;62.32
48390;BME280;34643;47.964;7.982;2023-05-07T16:28:29;96718.63;;;20.10;62.48
48390;BME280;34643;47.964;7.982;2023-05-07T16:33:30;96717.00;;;20.09;62.65
48390;BME280;34643;47.964;7.982;2023-05-07T16:38:30;96723.19;;;20.08;62.44
48390;BME280;34643;47.964;7.982;2023-05-07T16:43:32;96729.38;;;20.07;62.67
48390;BME280;34643;47.964;7.982;2023-05-07T16:48:33;96728.56;;;20.07;62.75
48390;BME280;34643;47.964;7.982;2023-05-07T16:53:33;96730.34;;;20.06;62.61
48390;BME280;34643;47.964;7.982;2023-05-07T16:58:34;96740.00;;;20.06;62.59
48390;BME280;34643;47.964;7.982;2023-05-07T17:03:35;96744.28;;;20.07;62.53
48390;BME280;34643;47.964;7.982;2023-05-07T17:08:35;96755.72;;;20.06;62.51
48390;BME280;34643;47.964;7.982;2023-05-07T17:13:35;96756.69;;;20.05;62.55
48390;BME280;34643;47.964;7.982;2023-05-07T17:18:35;96770.59;;;20.05;62.65
48390;BME280;34643;47.964;7.982;2023-05-07T17:23:36;96777.63;;;20.05;62.71
48390;BME280;34643;47.964;7.982;2023-05-07T17:28:36;96778.47;;;20.05;62.65
48390;BME280;34643;47.964;7.982;2023-05-07T17:33:36;96783.81;;;20.04;62.63
48390;BME280;34643;47.964;7.982;2023-05-07T17:38:37;96794.75;;;20.09;62.64
48390;BME280;34643;47.964;7.982;2023-05-07T17:43:37;96805.22;;;20.09;62.78
48390;BME280;34643;47.964;7.982;2023-05-07T17:48:37;96812.47;;;20.17;62.92
48390;BME280;34643;47.964;7.982;2023-05-07T17:53:38;96811.91;;;20.23;62.87
48390;BME280;34643;47.964;7.982;2023-05-07T17:58:38;96817.97;;;20.23;62.96
48390;BME280;34643;47.964;7.982;2023-05-07T18:03:38;96818.84;;;20.24;63.18
48390;BME280;34643;47.964;7.982;2023-05-07T18:08:39;96824.34;;;20.30;63.37
48390;BME280;34643;47.964;7.982;2023-05-07T18:13:39;96824.34;;;20.30;63.25
48390;BME280;34643;47.964;7.982;2023-05-07T18:18:40;96828.78;;;20.30;63.41
48390;BME280;34643;47.964;7.982;2023-05-07T18:23:40;96829.47;;;20.32;63.46
48390;BME280;34643;47.964;7.982;2023-05-07T18:28:40;96831.66;;;20.27;63.42
48390;BME280;34643;47.964;7.982;2023-05-07T18:33:41;96832.75;;;20.24;63.45
48390;BME280;34643;47.964;7.982;2023-05-07T18:38:41;96837.31;;;20.22;63.25
48390;BME280;34643;47.964;7.982;2023-05-07T18:43:42;96834.00;;;20.20;63.31
48390;BME280;34643;47.964;7.982;2023-05-07T18:48:42;96829.69;;;20.19;63.31
48390;BME280;34643;47.964;7.982;2023-05-07T18:53:42;96836.72;;;20.19;63.29
48390;BME280;34643;47.964;7.982;2023-05-07T18:58:42;96840.06;;;20.21;63.33
48390;BME280;34643;47.964;7.982;2023-05-07T19:03:43;96847.22;;;20.19;63.26
48390;BME280;34643;47.964;7.982;2023-05-07T19:08:43;96857.56;;;20.20;63.24
48390;BME280;34643;47.964;7.982;2023-05-07T19:13:43;96854.09;;;20.20;63.25
48390;BME280;34643;47.964;7.982;2023-05-07T19:18:43;96866.38;;;20.19;63.21
48390;BME280;34643;47.964;7.982;2023-05-07T19:23:44;96874.25;;;20.19;63.27
48390;BME280;34643;47.964;7.982;2023-05-07T19:28:45;96876.88;;;20.19;63.29
48390;BME280;34643;47.964;7.982;2023-05-07T19:33:45;96892.47;;;20.21;63.19
48390;BME280;34643;47.964;7.982;2023-05-07T19:38:46;96894.38;;;20.19;63.41
48390;BME280;34643;47.964;7.982;2023-05-07T19:43:48;96903.06;;;20.19;63.58
48390;BME280;34643;47.964;7.982;2023-05-07T19:48:49;96900.44;;;20.19;63.43
48390;BME280;34643;47.964;7.982;2023-05-07T19:53:50;96905.69;;;20.19;63.49
48390;BME280;34643;47.964;7.982;2023-05-07T19:58:50;96910.94;;;20.19;63.51
48390;BME280;34643;47.964;7.982;2023-05-07T20:03:51;96915.34;;;20.19;63.58
48390;BME280;34643;47.964;7.982;2023-05-07T20:08:52;96929.28;;;20.19;63.51
48390;BME280;34643;47.964;7.982;2023-05-07T20:13:52;96936.19;;;20.20;63.61
48390;BME280;34643;47.964;7.982;2023-05-07T20:18:52;96934.53;;;20.19;63.66
48390;BME280;34643;47.964;7.982;2023-05-07T20:23:52;96941.56;;;20.19;63.65
48390;BME280;34643;47.964;7.982;2023-05-07T20:28:53;96934.41;;;20.21;63.75
48390;BME280;34643;47.964;7.982;2023-05-07T20:33:53;96944.06;;;20.20;63.68
48390;BME280;34643;47.964;7.982;2023-05-07T20:38:54;96950.13;;;20.21;63.71
48390;BME280;34643;47.964;7.982;2023-05-07T20:43:55;96954.53;;;20.20;63.65
48390;BME280;34643;47.964;7.982;2023-05-07T20:48:56;96954.41;;;20.22;63.98
48390;BME280;34643;47.964;7.982;2023-05-07T20:53:56;96960.03;;;20.17;63.93
48390;BME280;34643;47.964;7.982;2023-05-07T20:58:56;96962.78;;;20.16;64.11
48390;BME280;34643;47.964;7.982;2023-05-07T21:03:56;96960.28;;;20.14;64.21
48390;BME280;34643;47.964;7.982;2023-05-07T21:08:57;96968.13;;;20.14;64.17
48390;BME280;34643;47.964;7.982;2023-05-07T21:13:57;96960.28;;;20.14;64.16
48390;BME280;34643;47.964;7.982;2023-05-07T21:18:57;96963.88;;;20.13;64.31
48390;BME280;34643;47.964;7.982;2023-05-07T21:23:58;96969.13;;;20.13;64.34
48390;BME280;34643;47.964;7.982;2023-05-07T21:28:58;96982.22;;;20.13;64.45
48390;BME280;34643;47.964;7.982;2023-05-07T21:33:58;96979.59;;;20.13;64.46
48390;BME280;34643;47.964;7.982;2023-05-07T21:38:58;96976.97;;;20.13;64.66
48390;BME280;34643;47.964;7.982;2023-05-07T21:43:59;96985.66;;;20.13;64.88
48390;BME280;34643;47.964;7.982;2023-05-07T21:48:59;96987.47;;;20.13;65.16
48390;BME280;34643;47.964;7.982;2023-05-07T21:54:00;96989.22;;;20.12;65.19
48390;BME280;34643;47.964;7.982;2023-05-07T21:59:00;96979.59;;;20.13;65.55
48390;BME280;34643;47.964;7.982;2023-05-07T22:04:00;96983.97;;;20.12;65.45
48390;BME280;34643;47.964;7.982;2023-05-07T22:09:00;96986.72;;;20.11;65.28
48390;BME280;34643;47.964;7.982;2023-05-07T22:14:01;96990.19;;;20.11;65.26
48390;BME280;34643;47.964;7.982;2023-05-07T22:19:01;96985.06;;;20.10;65.35
48390;BME280;34643;47.964;7.982;2023-05-07T22:24:01;96991.16;;;20.10;65.22
48390;BME280;34643;47.964;7.982;2023-05-07T22:29:02;96994.59;;;20.11;65.24
48390;BME280;34643;47.964;7.982;2023-05-07T22:34:03;96998.19;;;20.10;65.34
48390;BME280;34643;47.964;7.982;2023-05-07T22:39:03;96995.56;;;20.10;65.27
48390;BME280;34643;47.964;7.982;2023-05-07T22:44:06;96993.88;;;20.09;65.37
48390;BME280;34643;47.964;7.982;2023-05-07T22:49:06;96994.75;;;20.09;65.41
48390;BME280;34643;47.964;7.982;2023-05-07T22:54:06;97001.38;;;20.13;65.34
48390;BME280;34643;47.964;7.982;2023-05-07T22:59:07;96998.06;;;20.11;65.14
48390;BME280;34643;47.964;7.982;2023-05-07T23:04:08;96998.19;;;20.10;65.26
48390;BME280;34643;47.964;7.982;2023-05-07T23:09:08;96994.59;;;20.11;65.32
48390;BME280;34643;47.964;7.982;2023-05-07T23:14:08;96987.69;;;20.10;65.63
48390;BME280;34643;47.964;7.982;2023-05-07T23:19:09;96992.94;;;20.10;65.70
48390;BME280;34643;47.964;7.982;2023-05-07T23:24:10;96994.75;;;20.09;65.76
48390;BME280;34643;47.964;7.982;2023-05-07T23:29:11;96995.56;;;20.10;65.65
48390;BME280;34643;47.964;7.982;2023-05-07T23:34:11;96993.88;;;20.09;65.94
48390;BME280;34643;47.964;7.982;2023-05-07T23:39:11;96987.00;;;20.08;65.79
48390;BME280;34643;47.964;7.982;2023-05-07T23:44:11;96984.38;;;20.08;65.79
48390;BME280;34643;47.964;7.982;2023-05-07T23:49:12;96981.75;;;20.08;65.83
48390;BME280;34643;47.964;7.982;2023-05-07T23:54:12;96987.81;;;20.08;65.83
48390;BME280;34643;47.964;7.982;2023-05-07T23:59:13;96978.28;;;20.07;65.99
